sensor_id;sensor_type;location;lat;lon;timestamp;P1;durP1;ratioP1;P2;durP2;ratioP2
59302;SDS011;45074;52.764;6.896;2022-10-23T00:00:58;17.55;;;12.63;;
59302;SDS011;45074;52.764;6.896;2022-10-23T00:03:25;18.73;;;12.95;;
59302;SDS011;45074;52.764;6.896;2022-10-23T00:05:51;16.15;;;12.38;;
59302;SDS011;45074;52.764;6.896;2022-10-23T00:08:17;16.60;;;12.10;;
59302;SDS011;45074;52.764;6.896;2022-10-23T00:10:43;18.40;;;12.77;;
59302;SDS011;45074;52.764;6.896;2022-10-23T00:13:09;18.08;;;12.45;;
59302;SDS011;45074;52.764;6.896;2022-10-23T00:15:35;15.40;;;11.60;;
59302;SDS011;45074;52.764;6.896;2022-10-23T00:18:02;17.63;;;12.00;;
59302;SDS011;45074;52.764;6.896;2022-10-23T00:20:28;17.02;;;12.55;;
59302;SDS011;45074;52.764;6.896;2022-10-23T00:22:54;17.42;;;12.63;;
59302;SDS011;45074;52.764;6.896;2022-10-23T00:25:20;16.23;;;11.75;;
59302;SDS011;45074;52.764;6.896;2022-10-23T00:27:46;17.38;;;11.95;;
59302;SDS011;45074;52.764;6.896;2022-10-23T00:30:12;18.13;;;12.32;;
59302;SDS011;45074;52.764;6.896;2022-10-23T00:32:38;18.05;;;12.60;;
59302;SDS011;45074;52.764;6.896;2022-10-23T00:35:04;15.57;;;11.98;;
59302;SDS011;45074;52.764;6.896;2022-10-23T00:37:31;16.52;;;11.60;;
59302;SDS011;45074;52.764;6.896;2022-10-23T00:39:57;18.38;;;12.13;;
59302;SDS011;45074;52.764;6.896;2022-10-23T00:42:23;17.65;;;12.30;;
59302;SDS011;45074;52.764;6.896;2022-10-23T00:47:15;15.32;;;11.48;;
59302;SDS011;45074;52.764;6.896;2022-10-23T00:49:41;17.67;;;12.35;;
59302;SDS011;45074;52.764;6.896;2022-10-23T00:52:08;17.25;;;11.85;;
59302;SDS011;45074;52.764;6.896;2022-10-23T00:54:36;17.70;;;12.57;;
59302;SDS011;45074;52.764;6.896;2022-10-23T00:57:08;18.17;;;12.00;;
59302;SDS011;45074;52.764;6.896;2022-10-23T00:59:37;17.70;;;11.95;;
59302;SDS011;45074;52.764;6.896;2022-10-23T01:02:03;16.65;;;11.73;;
59302;SDS011;45074;52.764;6.896;2022-10-23T01:04:29;20.95;;;12.07;;
59302;SDS011;45074;52.764;6.896;2022-10-23T01:07:04;16.27;;;11.30;;
59302;SDS011;45074;52.764;6.896;2022-10-23T01:09:46;16.00;;;11.68;;
59302;SDS011;45074;52.764;6.896;2022-10-23T01:12:20;16.40;;;11.60;;
59302;SDS011;45074;52.764;6.896;2022-10-23T01:14:54;17.73;;;11.65;;
59302;SDS011;45074;52.764;6.896;2022-10-23T01:17:26;17.88;;;12.20;;
59302;SDS011;45074;52.764;6.896;2022-10-23T01:27:30;18.60;;;11.32;;
59302;SDS011;45074;52.764;6.896;2022-10-23T01:32:42;14.40;;;11.15;;
59302;SDS011;45074;52.764;6.896;2022-10-23T01:37:49;15.95;;;11.57;;
59302;SDS011;45074;52.764;6.896;2022-10-23T01:43:11;15.15;;;10.93;;
59302;SDS011;45074;52.764;6.896;2022-10-23T01:45:41;15.82;;;10.55;;
59302;SDS011;45074;52.764;6.896;2022-10-23T01:48:22;17.27;;;11.23;;
59302;SDS011;45074;52.764;6.896;2022-10-23T01:50:52;15.20;;;10.88;;
59302;SDS011;45074;52.764;6.896;2022-10-23T01:53:21;17.50;;;10.70;;
59302;SDS011;45074;52.764;6.896;2022-10-23T01:55:50;14.80;;;10.65;;
59302;SDS011;45074;52.764;6.896;2022-10-23T01:58:17;18.20;;;11.43;;
59302;SDS011;45074;52.764;6.896;2022-10-23T02:00:45;16.15;;;10.88;;
59302;SDS011;45074;52.764;6.896;2022-10-23T02:03:12;19.75;;;11.18;;
59302;SDS011;45074;52.764;6.896;2022-10-23T02:05:40;17.45;;;11.23;;
59302;SDS011;45074;52.764;6.896;2022-10-23T02:08:08;18.85;;;11.40;;
59302;SDS011;45074;52.764;6.896;2022-10-23T02:10:42;19.08;;;11.07;;
59302;SDS011;45074;52.764;6.896;2022-10-23T02:13:24;15.40;;;10.73;;
59302;SDS011;45074;52.764;6.896;2022-10-23T02:18:56;17.75;;;11.32;;
59302;SDS011;45074;52.764;6.896;2022-10-23T02:21:38;16.23;;;11.02;;
59302;SDS011;45074;52.764;6.896;2022-10-23T02:24:17;17.00;;;11.60;;
59302;SDS011;45074;52.764;6.896;2022-10-23T02:26:54;15.65;;;11.05;;
59302;SDS011;45074;52.764;6.896;2022-10-23T02:29:32;15.60;;;11.00;;
59302;SDS011;45074;52.764;6.896;2022-10-23T02:32:03;16.67;;;11.13;;
59302;SDS011;45074;52.764;6.896;2022-10-23T02:34:30;17.05;;;11.60;;
59302;SDS011;45074;52.764;6.896;2022-10-23T02:36:56;16.52;;;11.02;;
59302;SDS011;45074;52.764;6.896;2022-10-23T02:39:23;16.33;;;11.13;;
59302;SDS011;45074;52.764;6.896;2022-10-23T02:42:04;17.02;;;11.70;;
59302;SDS011;45074;52.764;6.896;2022-10-23T02:52:56;20.55;;;12.18;;
59302;SDS011;45074;52.764;6.896;2022-10-23T02:58:27;19.30;;;12.35;;
59302;SDS011;45074;52.764;6.896;2022-10-23T03:00:54;17.75;;;13.40;;
59302;SDS011;45074;52.764;6.896;2022-10-23T03:03:33;17.08;;;12.50;;
59302;SDS011;45074;52.764;6.896;2022-10-23T03:06:01;17.13;;;12.15;;
59302;SDS011;45074;52.764;6.896;2022-10-23T03:08:27;15.80;;;11.93;;
59302;SDS011;45074;52.764;6.896;2022-10-23T03:10:53;18.65;;;12.68;;
59302;SDS011;45074;52.764;6.896;2022-10-23T03:13:19;18.10;;;12.38;;
59302;SDS011;45074;52.764;6.896;2022-10-23T03:15:45;17.92;;;11.90;;
59302;SDS011;45074;52.764;6.896;2022-10-23T03:18:11;19.50;;;12.55;;
59302;SDS011;45074;52.764;6.896;2022-10-23T03:20:37;18.83;;;12.90;;
59302;SDS011;45074;52.764;6.896;2022-10-23T03:23:03;20.55;;;12.80;;
59302;SDS011;45074;52.764;6.896;2022-10-23T03:25:29;20.30;;;12.57;;
59302;SDS011;45074;52.764;6.896;2022-10-23T03:27:55;17.25;;;12.20;;
59302;SDS011;45074;52.764;6.896;2022-10-23T03:30:21;19.45;;;12.90;;
59302;SDS011;45074;52.764;6.896;2022-10-23T03:32:47;19.33;;;12.75;;
59302;SDS011;45074;52.764;6.896;2022-10-23T03:35:13;17.70;;;13.32;;
59302;SDS011;45074;52.764;6.896;2022-10-23T03:37:39;18.92;;;13.38;;
59302;SDS011;45074;52.764;6.896;2022-10-23T03:40:06;19.50;;;13.60;;
59302;SDS011;45074;52.764;6.896;2022-10-23T03:42:32;21.20;;;13.50;;
59302;SDS011;45074;52.764;6.896;2022-10-23T03:44:58;20.50;;;13.48;;
59302;SDS011;45074;52.764;6.896;2022-10-23T03:47:24;18.65;;;13.30;;
59302;SDS011;45074;52.764;6.896;2022-10-23T03:49:50;17.63;;;12.88;;
59302;SDS011;45074;52.764;6.896;2022-10-23T03:52:16;17.45;;;13.38;;
59302;SDS011;45074;52.764;6.896;2022-10-23T03:54:42;21.60;;;12.55;;
59302;SDS011;45074;52.764;6.896;2022-10-23T03:57:08;18.10;;;12.93;;
59302;SDS011;45074;52.764;6.896;2022-10-23T03:59:34;20.00;;;12.77;;
59302;SDS011;45074;52.764;6.896;2022-10-23T04:02:00;20.80;;;13.25;;
59302;SDS011;45074;52.764;6.896;2022-10-23T04:04:26;18.80;;;12.80;;
59302;SDS011;45074;52.764;6.896;2022-10-23T04:06:52;17.58;;;12.63;;
59302;SDS011;45074;52.764;6.896;2022-10-23T04:09:18;17.52;;;12.50;;
59302;SDS011;45074;52.764;6.896;2022-10-23T04:11:44;18.40;;;12.00;;
59302;SDS011;45074;52.764;6.896;2022-10-23T04:14:11;16.92;;;12.80;;
59302;SDS011;45074;52.764;6.896;2022-10-23T04:16:37;17.75;;;12.93;;
59302;SDS011;45074;52.764;6.896;2022-10-23T04:19:04;18.48;;;12.88;;
59302;SDS011;45074;52.764;6.896;2022-10-23T04:21:30;20.50;;;13.40;;
59302;SDS011;45074;52.764;6.896;2022-10-23T04:23:56;17.88;;;13.00;;
59302;SDS011;45074;52.764;6.896;2022-10-23T04:26:22;20.50;;;13.00;;
59302;SDS011;45074;52.764;6.896;2022-10-23T04:28:48;20.38;;;12.75;;
59302;SDS011;45074;52.764;6.896;2022-10-23T04:31:14;19.85;;;12.43;;
59302;SDS011;45074;52.764;6.896;2022-10-23T04:33:40;17.77;;;12.30;;
59302;SDS011;45074;52.764;6.896;2022-10-23T04:36:06;18.98;;;12.68;;
59302;SDS011;45074;52.764;6.896;2022-10-23T04:38:32;21.02;;;12.50;;
59302;SDS011;45074;52.764;6.896;2022-10-23T04:40:58;19.20;;;13.23;;
59302;SDS011;45074;52.764;6.896;2022-10-23T04:43:24;20.38;;;13.00;;
59302;SDS011;45074;52.764;6.896;2022-10-23T04:45:50;20.08;;;13.23;;
59302;SDS011;45074;52.764;6.896;2022-10-23T04:48:16;19.35;;;12.63;;
59302;SDS011;45074;52.764;6.896;2022-10-23T04:50:42;19.30;;;12.60;;
59302;SDS011;45074;52.764;6.896;2022-10-23T04:53:08;17.33;;;12.40;;
59302;SDS011;45074;52.764;6.896;2022-10-23T04:55:34;19.50;;;12.45;;
59302;SDS011;45074;52.764;6.896;2022-10-23T04:58:00;18.15;;;12.77;;
59302;SDS011;45074;52.764;6.896;2022-10-23T05:00:26;20.02;;;12.75;;
59302;SDS011;45074;52.764;6.896;2022-10-23T05:02:52;21.08;;;12.15;;
59302;SDS011;45074;52.764;6.896;2022-10-23T05:05:18;17.95;;;12.55;;
59302;SDS011;45074;52.764;6.896;2022-10-23T05:07:44;16.42;;;12.10;;
59302;SDS011;45074;52.764;6.896;2022-10-23T05:10:10;20.80;;;12.52;;
59302;SDS011;45074;52.764;6.896;2022-10-23T05:12:36;21.70;;;13.15;;
59302;SDS011;45074;52.764;6.896;2022-10-23T05:15:02;21.77;;;12.80;;
59302;SDS011;45074;52.764;6.896;2022-10-23T05:17:31;19.20;;;12.70;;
59302;SDS011;45074;52.764;6.896;2022-10-23T05:20:01;21.95;;;12.77;;
59302;SDS011;45074;52.764;6.896;2022-10-23T05:22:30;20.13;;;12.27;;
59302;SDS011;45074;52.764;6.896;2022-10-23T05:24:59;19.80;;;12.52;;
59302;SDS011;45074;52.764;6.896;2022-10-23T05:27:26;23.85;;;12.95;;
59302;SDS011;45074;52.764;6.896;2022-10-23T05:29:52;19.77;;;12.40;;
59302;SDS011;45074;52.764;6.896;2022-10-23T05:32:18;19.10;;;12.52;;
59302;SDS011;45074;52.764;6.896;2022-10-23T05:34:44;20.35;;;12.50;;
59302;SDS011;45074;52.764;6.896;2022-10-23T05:37:11;18.00;;;12.50;;
59302;SDS011;45074;52.764;6.896;2022-10-23T05:39:38;18.75;;;11.57;;
59302;SDS011;45074;52.764;6.896;2022-10-23T05:42:04;18.83;;;12.23;;
59302;SDS011;45074;52.764;6.896;2022-10-23T05:44:30;18.05;;;11.95;;
59302;SDS011;45074;52.764;6.896;2022-10-23T05:46:56;20.35;;;12.50;;
59302;SDS011;45074;52.764;6.896;2022-10-23T05:49:23;17.23;;;12.18;;
59302;SDS011;45074;52.764;6.896;2022-10-23T05:51:49;17.42;;;11.32;;
59302;SDS011;45074;52.764;6.896;2022-10-23T05:54:15;19.23;;;11.40;;
59302;SDS011;45074;52.764;6.896;2022-10-23T05:56:41;20.52;;;11.70;;
59302;SDS011;45074;52.764;6.896;2022-10-23T05:59:08;22.73;;;11.73;;
59302;SDS011;45074;52.764;6.896;2022-10-23T06:01:34;19.77;;;12.00;;
59302;SDS011;45074;52.764;6.896;2022-10-23T06:04:01;19.67;;;11.73;;
59302;SDS011;45074;52.764;6.896;2022-10-23T06:06:28;20.00;;;12.32;;
59302;SDS011;45074;52.764;6.896;2022-10-23T06:08:54;18.48;;;11.25;;
59302;SDS011;45074;52.764;6.896;2022-10-23T06:11:20;18.55;;;11.60;;
59302;SDS011;45074;52.764;6.896;2022-10-23T06:13:46;17.08;;;11.63;;
59302;SDS011;45074;52.764;6.896;2022-10-23T06:16:19;19.40;;;11.80;;
59302;SDS011;45074;52.764;6.896;2022-10-23T06:18:46;21.23;;;10.88;;
59302;SDS011;45074;52.764;6.896;2022-10-23T06:21:13;18.45;;;10.98;;
59302;SDS011;45074;52.764;6.896;2022-10-23T06:23:40;21.80;;;11.55;;
59302;SDS011;45074;52.764;6.896;2022-10-23T06:26:07;17.48;;;11.73;;
59302;SDS011;45074;52.764;6.896;2022-10-23T06:28:35;21.50;;;11.85;;
59302;SDS011;45074;52.764;6.896;2022-10-23T06:31:05;19.75;;;11.32;;
59302;SDS011;45074;52.764;6.896;2022-10-23T06:33:31;16.97;;;12.03;;
59302;SDS011;45074;52.764;6.896;2022-10-23T06:35:57;18.45;;;11.38;;
59302;SDS011;45074;52.764;6.896;2022-10-23T06:38:24;21.15;;;13.07;;
59302;SDS011;45074;52.764;6.896;2022-10-23T06:40:53;18.15;;;11.77;;
59302;SDS011;45074;52.764;6.896;2022-10-23T06:43:21;19.67;;;12.32;;
59302;SDS011;45074;52.764;6.896;2022-10-23T06:45:47;19.23;;;12.07;;
59302;SDS011;45074;52.764;6.896;2022-10-23T06:48:13;19.40;;;12.90;;
59302;SDS011;45074;52.764;6.896;2022-10-23T06:50:40;19.45;;;11.73;;
59302;SDS011;45074;52.764;6.896;2022-10-23T06:53:06;19.33;;;12.27;;
59302;SDS011;45074;52.764;6.896;2022-10-23T06:55:33;19.15;;;12.43;;
59302;SDS011;45074;52.764;6.896;2022-10-23T06:57:59;18.45;;;12.15;;
59302;SDS011;45074;52.764;6.896;2022-10-23T07:00:25;21.58;;;12.70;;
59302;SDS011;45074;52.764;6.896;2022-10-23T07:02:51;20.77;;;12.38;;
59302;SDS011;45074;52.764;6.896;2022-10-23T07:05:18;18.35;;;12.20;;
59302;SDS011;45074;52.764;6.896;2022-10-23T07:07:44;18.70;;;11.95;;
59302;SDS011;45074;52.764;6.896;2022-10-23T07:10:10;18.40;;;11.70;;
59302;SDS011;45074;52.764;6.896;2022-10-23T07:12:36;18.80;;;11.35;;
59302;SDS011;45074;52.764;6.896;2022-10-23T07:15:02;19.95;;;11.18;;
59302;SDS011;45074;52.764;6.896;2022-10-23T07:17:28;18.80;;;11.43;;
59302;SDS011;45074;52.764;6.896;2022-10-23T07:19:54;16.90;;;11.43;;
59302;SDS011;45074;52.764;6.896;2022-10-23T07:22:20;18.23;;;11.63;;
59302;SDS011;45074;52.764;6.896;2022-10-23T07:24:46;16.73;;;11.57;;
59302;SDS011;45074;52.764;6.896;2022-10-23T07:27:12;21.80;;;11.80;;
59302;SDS011;45074;52.764;6.896;2022-10-23T07:29:38;19.48;;;11.95;;
59302;SDS011;45074;52.764;6.896;2022-10-23T07:32:04;18.33;;;11.85;;
59302;SDS011;45074;52.764;6.896;2022-10-23T07:34:30;17.67;;;11.48;;
59302;SDS011;45074;52.764;6.896;2022-10-23T07:36:57;19.17;;;11.70;;
59302;SDS011;45074;52.764;6.896;2022-10-23T07:39:23;18.77;;;11.73;;
59302;SDS011;45074;52.764;6.896;2022-10-23T07:41:49;21.80;;;11.73;;
59302;SDS011;45074;52.764;6.896;2022-10-23T07:44:15;19.95;;;11.45;;
59302;SDS011;45074;52.764;6.896;2022-10-23T07:46:41;19.70;;;11.93;;
59302;SDS011;45074;52.764;6.896;2022-10-23T07:49:08;20.52;;;11.25;;
59302;SDS011;45074;52.764;6.896;2022-10-23T07:51:35;20.98;;;11.52;;
59302;SDS011;45074;52.764;6.896;2022-10-23T07:54:01;18.88;;;11.35;;
59302;SDS011;45074;52.764;6.896;2022-10-23T07:56:27;18.20;;;10.77;;
59302;SDS011;45074;52.764;6.896;2022-10-23T07:58:56;19.17;;;11.27;;
59302;SDS011;45074;52.764;6.896;2022-10-23T08:01:25;17.98;;;10.63;;
59302;SDS011;45074;52.764;6.896;2022-10-23T08:03:59;18.85;;;10.55;;
59302;SDS011;45074;52.764;6.896;2022-10-23T08:06:25;16.92;;;11.07;;
59302;SDS011;45074;52.764;6.896;2022-10-23T08:08:51;18.52;;;10.85;;
59302;SDS011;45074;52.764;6.896;2022-10-23T08:11:17;17.13;;;10.40;;
59302;SDS011;45074;52.764;6.896;2022-10-23T08:13:50;18.77;;;10.32;;
59302;SDS011;45074;52.764;6.896;2022-10-23T08:16:16;15.10;;;9.90;;
59302;SDS011;45074;52.764;6.896;2022-10-23T08:18:42;16.52;;;10.23;;
59302;SDS011;45074;52.764;6.896;2022-10-23T08:21:09;16.80;;;9.43;;
59302;SDS011;45074;52.764;6.896;2022-10-23T08:23:35;18.90;;;9.93;;
59302;SDS011;45074;52.764;6.896;2022-10-23T08:26:02;14.43;;;8.82;;
59302;SDS011;45074;52.764;6.896;2022-10-23T08:28:29;18.05;;;9.77;;
59302;SDS011;45074;52.764;6.896;2022-10-23T08:30:56;15.07;;;9.60;;
59302;SDS011;45074;52.764;6.896;2022-10-23T08:33:22;16.45;;;9.40;;
59302;SDS011;45074;52.764;6.896;2022-10-23T08:35:48;17.17;;;9.18;;
59302;SDS011;45074;52.764;6.896;2022-10-23T08:38:14;17.75;;;9.23;;
59302;SDS011;45074;52.764;6.896;2022-10-23T08:40:44;18.90;;;8.80;;
59302;SDS011;45074;52.764;6.896;2022-10-23T08:43:19;16.98;;;9.60;;
59302;SDS011;45074;52.764;6.896;2022-10-23T08:46:15;16.80;;;8.80;;
59302;SDS011;45074;52.764;6.896;2022-10-23T08:48:45;16.02;;;9.18;;
59302;SDS011;45074;52.764;6.896;2022-10-23T08:51:17;15.65;;;9.32;;
59302;SDS011;45074;52.764;6.896;2022-10-23T08:53:55;14.27;;;8.70;;
59302;SDS011;45074;52.764;6.896;2022-10-23T08:56:29;16.13;;;8.70;;
59302;SDS011;45074;52.764;6.896;2022-10-23T09:02:29;14.63;;;9.10;;
59302;SDS011;45074;52.764;6.896;2022-10-23T09:05:00;14.38;;;8.90;;
59302;SDS011;45074;52.764;6.896;2022-10-23T09:07:35;12.77;;;8.63;;
59302;SDS011;45074;52.764;6.896;2022-10-23T09:12:57;17.40;;;8.98;;
59302;SDS011;45074;52.764;6.896;2022-10-23T09:15:30;16.55;;;8.55;;
59302;SDS011;45074;52.764;6.896;2022-10-23T09:18:10;16.65;;;8.07;;
59302;SDS011;45074;52.764;6.896;2022-10-23T09:20:38;15.52;;;8.25;;
59302;SDS011;45074;52.764;6.896;2022-10-23T09:25:36;12.10;;;7.80;;
59302;SDS011;45074;52.764;6.896;2022-10-23T09:28:03;13.05;;;8.02;;
59302;SDS011;45074;52.764;6.896;2022-10-23T09:30:39;11.70;;;8.00;;
59302;SDS011;45074;52.764;6.896;2022-10-23T09:38:27;15.77;;;7.93;;
59302;SDS011;45074;52.764;6.896;2022-10-23T09:41:00;13.77;;;7.55;;
59302;SDS011;45074;52.764;6.896;2022-10-23T09:43:31;14.70;;;7.75;;
59302;SDS011;45074;52.764;6.896;2022-10-23T09:45:59;14.00;;;7.85;;
59302;SDS011;45074;52.764;6.896;2022-10-23T09:48:27;14.57;;;7.47;;
59302;SDS011;45074;52.764;6.896;2022-10-23T09:50:57;12.90;;;7.22;;
59302;SDS011;45074;52.764;6.896;2022-10-23T09:55:53;13.07;;;6.90;;
59302;SDS011;45074;52.764;6.896;2022-10-23T10:01:22;10.65;;;6.53;;
59302;SDS011;45074;52.764;6.896;2022-10-23T10:03:53;11.88;;;6.90;;
59302;SDS011;45074;52.764;6.896;2022-10-23T10:06:25;11.88;;;6.82;;
59302;SDS011;45074;52.764;6.896;2022-10-23T10:08:54;16.13;;;6.88;;
59302;SDS011;45074;52.764;6.896;2022-10-23T10:11:26;11.98;;;7.05;;
59302;SDS011;45074;52.764;6.896;2022-10-23T10:17:00;12.43;;;6.82;;
59302;SDS011;45074;52.764;6.896;2022-10-23T10:19:43;11.88;;;6.88;;
59302;SDS011;45074;52.764;6.896;2022-10-23T10:30:36;11.52;;;6.10;;
59302;SDS011;45074;52.764;6.896;2022-10-23T10:33:14;13.65;;;6.47;;
59302;SDS011;45074;52.764;6.896;2022-10-23T10:35:49;10.45;;;6.43;;
59302;SDS011;45074;52.764;6.896;2022-10-23T10:38:34;11.10;;;6.20;;
59302;SDS011;45074;52.764;6.896;2022-10-23T10:46:58;11.07;;;5.95;;
59302;SDS011;45074;52.764;6.896;2022-10-23T10:55:31;10.50;;;5.30;;
59302;SDS011;45074;52.764;6.896;2022-10-23T10:58:04;12.80;;;5.30;;
59302;SDS011;45074;52.764;6.896;2022-10-23T11:00:49;10.35;;;5.38;;
59302;SDS011;45074;52.764;6.896;2022-10-23T11:05:46;10.60;;;5.57;;
59302;SDS011;45074;52.764;6.896;2022-10-23T11:08:18;9.63;;;5.95;;
59302;SDS011;45074;52.764;6.896;2022-10-23T11:10:52;11.00;;;6.20;;
59302;SDS011;45074;52.764;6.896;2022-10-23T11:13:26;10.25;;;5.40;;
59302;SDS011;45074;52.764;6.896;2022-10-23T11:15:58;9.80;;;5.10;;
59302;SDS011;45074;52.764;6.896;2022-10-23T11:18:32;11.25;;;5.30;;
59302;SDS011;45074;52.764;6.896;2022-10-23T11:21:05;9.43;;;4.70;;
59302;SDS011;45074;52.764;6.896;2022-10-23T11:23:59;10.55;;;5.10;;
59302;SDS011;45074;52.764;6.896;2022-10-23T11:26:43;8.70;;;5.05;;
59302;SDS011;45074;52.764;6.896;2022-10-23T11:34:47;12.10;;;4.88;;
59302;SDS011;45074;52.764;6.896;2022-10-23T11:37:17;8.40;;;4.45;;
59302;SDS011;45074;52.764;6.896;2022-10-23T11:42:46;9.60;;;4.63;;
59302;SDS011;45074;52.764;6.896;2022-10-23T11:45:31;8.25;;;4.90;;
59302;SDS011;45074;52.764;6.896;2022-10-23T11:53:49;13.02;;;5.75;;
59302;SDS011;45074;52.764;6.896;2022-10-23T11:58:43;10.27;;;5.65;;
59302;SDS011;45074;52.764;6.896;2022-10-23T12:06:31;8.07;;;3.97;;
59302;SDS011;45074;52.764;6.896;2022-10-23T12:09:05;11.70;;;4.93;;
59302;SDS011;45074;52.764;6.896;2022-10-23T12:14:33;8.63;;;5.13;;
59302;SDS011;45074;52.764;6.896;2022-10-23T12:25:49;9.68;;;4.25;;
59302;SDS011;45074;52.764;6.896;2022-10-23T12:28:42;10.35;;;4.28;;
59302;SDS011;45074;52.764;6.896;2022-10-23T12:31:32;9.30;;;4.15;;
59302;SDS011;45074;52.764;6.896;2022-10-23T12:39:29;9.40;;;4.50;;
59302;SDS011;45074;52.764;6.896;2022-10-23T12:41:57;9.68;;;4.40;;
59302;SDS011;45074;52.764;6.896;2022-10-23T12:44:24;12.60;;;4.95;;
59302;SDS011;45074;52.764;6.896;2022-10-23T12:46:55;9.63;;;5.20;;
59302;SDS011;45074;52.764;6.896;2022-10-23T12:49:24;11.18;;;5.68;;
59302;SDS011;45074;52.764;6.896;2022-10-23T12:51:58;9.93;;;4.80;;
59302;SDS011;45074;52.764;6.896;2022-10-23T12:54:29;9.77;;;4.30;;
59302;SDS011;45074;52.764;6.896;2022-10-23T12:56:56;8.20;;;3.88;;
59302;SDS011;45074;52.764;6.896;2022-10-23T12:59:34;8.38;;;4.10;;
59302;SDS011;45074;52.764;6.896;2022-10-23T13:02:12;6.80;;;3.80;;
59302;SDS011;45074;52.764;6.896;2022-10-23T13:05:02;7.63;;;3.83;;
59302;SDS011;45074;52.764;6.896;2022-10-23T13:07:31;8.93;;;4.03;;
59302;SDS011;45074;52.764;6.896;2022-10-23T13:10:01;7.75;;;3.80;;
59302;SDS011;45074;52.764;6.896;2022-10-23T13:12:28;7.82;;;4.18;;
59302;SDS011;45074;52.764;6.896;2022-10-23T13:17:39;10.23;;;4.00;;
59302;SDS011;45074;52.764;6.896;2022-10-23T13:22:42;8.32;;;3.80;;
59302;SDS011;45074;52.764;6.896;2022-10-23T13:25:51;8.48;;;3.65;;
59302;SDS011;45074;52.764;6.896;2022-10-23T13:28:10;7.97;;;3.80;;
59302;SDS011;45074;52.764;6.896;2022-10-23T13:33:37;9.15;;;4.50;;
59302;SDS011;45074;52.764;6.896;2022-10-23T13:38:39;8.60;;;4.30;;
59302;SDS011;45074;52.764;6.896;2022-10-23T13:41:24;8.52;;;3.72;;
59302;SDS011;45074;52.764;6.896;2022-10-23T13:43:58;10.82;;;4.45;;
59302;SDS011;45074;52.764;6.896;2022-10-23T13:46:24;8.52;;;3.97;;
59302;SDS011;45074;52.764;6.896;2022-10-23T13:48:50;8.95;;;4.50;;
59302;SDS011;45074;52.764;6.896;2022-10-23T13:51:23;7.93;;;3.92;;
59302;SDS011;45074;52.764;6.896;2022-10-23T13:53:51;8.18;;;4.28;;
59302;SDS011;45074;52.764;6.896;2022-10-23T13:56:19;7.63;;;4.00;;
59302;SDS011;45074;52.764;6.896;2022-10-23T13:58:46;10.38;;;3.97;;
59302;SDS011;45074;52.764;6.896;2022-10-23T14:01:22;7.10;;;3.67;;
59302;SDS011;45074;52.764;6.896;2022-10-23T14:03:49;9.07;;;4.05;;
59302;SDS011;45074;52.764;6.896;2022-10-23T14:06:16;12.23;;;4.00;;
59302;SDS011;45074;52.764;6.896;2022-10-23T14:08:42;7.50;;;3.65;;
59302;SDS011;45074;52.764;6.896;2022-10-23T14:11:11;7.25;;;3.60;;
59302;SDS011;45074;52.764;6.896;2022-10-23T14:16:05;7.25;;;3.60;;
59302;SDS011;45074;52.764;6.896;2022-10-23T14:18:32;10.73;;;4.18;;
59302;SDS011;45074;52.764;6.896;2022-10-23T14:20:59;10.13;;;3.85;;
59302;SDS011;45074;52.764;6.896;2022-10-23T14:23:25;10.15;;;4.15;;
59302;SDS011;45074;52.764;6.896;2022-10-23T14:25:51;8.88;;;4.28;;
59302;SDS011;45074;52.764;6.896;2022-10-23T14:28:17;8.55;;;3.72;;
59302;SDS011;45074;52.764;6.896;2022-10-23T14:30:43;8.35;;;3.67;;
59302;SDS011;45074;52.764;6.896;2022-10-23T14:33:09;7.32;;;4.05;;
59302;SDS011;45074;52.764;6.896;2022-10-23T14:35:39;10.10;;;3.83;;
59302;SDS011;45074;52.764;6.896;2022-10-23T14:38:06;7.68;;;3.50;;
59302;SDS011;45074;52.764;6.896;2022-10-23T14:40:35;8.35;;;4.10;;
59302;SDS011;45074;52.764;6.896;2022-10-23T14:43:02;9.15;;;3.90;;
59302;SDS011;45074;52.764;6.896;2022-10-23T14:45:28;8.18;;;3.78;;
59302;SDS011;45074;52.764;6.896;2022-10-23T14:47:54;10.75;;;4.35;;
59302;SDS011;45074;52.764;6.896;2022-10-23T14:50:20;8.35;;;4.20;;
59302;SDS011;45074;52.764;6.896;2022-10-23T14:52:46;8.45;;;3.92;;
59302;SDS011;45074;52.764;6.896;2022-10-23T14:55:12;8.43;;;4.10;;
59302;SDS011;45074;52.764;6.896;2022-10-23T14:57:38;8.82;;;3.90;;
59302;SDS011;45074;52.764;6.896;2022-10-23T15:00:04;8.75;;;4.03;;
59302;SDS011;45074;52.764;6.896;2022-10-23T15:02:30;9.32;;;3.78;;
59302;SDS011;45074;52.764;6.896;2022-10-23T15:04:56;8.95;;;3.92;;
59302;SDS011;45074;52.764;6.896;2022-10-23T15:07:22;9.15;;;3.65;;
59302;SDS011;45074;52.764;6.896;2022-10-23T15:09:48;9.05;;;3.72;;
59302;SDS011;45074;52.764;6.896;2022-10-23T15:12:16;9.02;;;5.70;;
59302;SDS011;45074;52.764;6.896;2022-10-23T15:14:42;6.63;;;3.65;;
59302;SDS011;45074;52.764;6.896;2022-10-23T15:17:08;7.10;;;3.35;;
59302;SDS011;45074;52.764;6.896;2022-10-23T15:19:34;8.13;;;4.25;;
59302;SDS011;45074;52.764;6.896;2022-10-23T15:22:00;6.88;;;3.80;;
59302;SDS011;45074;52.764;6.896;2022-10-23T15:24:26;8.68;;;3.65;;
59302;SDS011;45074;52.764;6.896;2022-10-23T15:26:52;7.97;;;3.70;;
59302;SDS011;45074;52.764;6.896;2022-10-23T15:29:18;8.40;;;3.70;;
59302;SDS011;45074;52.764;6.896;2022-10-23T15:31:46;9.95;;;4.00;;
59302;SDS011;45074;52.764;6.896;2022-10-23T15:34:18;9.05;;;3.63;;
59302;SDS011;45074;52.764;6.896;2022-10-23T15:36:48;7.05;;;3.50;;
59302;SDS011;45074;52.764;6.896;2022-10-23T15:39:16;9.57;;;3.75;;
59302;SDS011;45074;52.764;6.896;2022-10-23T15:41:43;6.85;;;3.80;;
59302;SDS011;45074;52.764;6.896;2022-10-23T15:44:11;6.95;;;3.63;;
59302;SDS011;45074;52.764;6.896;2022-10-23T15:46:38;8.13;;;3.33;;
59302;SDS011;45074;52.764;6.896;2022-10-23T15:49:04;10.40;;;3.67;;
59302;SDS011;45074;52.764;6.896;2022-10-23T15:51:32;5.97;;;3.35;;
59302;SDS011;45074;52.764;6.896;2022-10-23T15:53:58;8.82;;;3.85;;
59302;SDS011;45074;52.764;6.896;2022-10-23T15:56:24;12.52;;;5.43;;
59302;SDS011;45074;52.764;6.896;2022-10-23T15:58:50;8.85;;;4.80;;
59302;SDS011;45074;52.764;6.896;2022-10-23T16:01:17;8.02;;;4.38;;
59302;SDS011;45074;52.764;6.896;2022-10-23T16:03:43;9.00;;;3.78;;
59302;SDS011;45074;52.764;6.896;2022-10-23T16:06:10;8.57;;;3.80;;
59302;SDS011;45074;52.764;6.896;2022-10-23T16:08:38;8.65;;;3.70;;
59302;SDS011;45074;52.764;6.896;2022-10-23T16:11:09;8.35;;;3.85;;
59302;SDS011;45074;52.764;6.896;2022-10-23T16:13:41;11.57;;;4.00;;
59302;SDS011;45074;52.764;6.896;2022-10-23T16:16:08;10.43;;;4.10;;
59302;SDS011;45074;52.764;6.896;2022-10-23T16:18:34;7.18;;;3.28;;
59302;SDS011;45074;52.764;6.896;2022-10-23T16:21:00;7.25;;;3.40;;
59302;SDS011;45074;52.764;6.896;2022-10-23T16:23:26;8.63;;;3.80;;
59302;SDS011;45074;52.764;6.896;2022-10-23T16:25:52;6.55;;;3.65;;
59302;SDS011;45074;52.764;6.896;2022-10-23T16:28:18;10.85;;;3.70;;
59302;SDS011;45074;52.764;6.896;2022-10-23T16:30:44;7.97;;;3.78;;
59302;SDS011;45074;52.764;6.896;2022-10-23T16:33:11;7.32;;;3.60;;
59302;SDS011;45074;52.764;6.896;2022-10-23T16:35:37;10.23;;;3.97;;
59302;SDS011;45074;52.764;6.896;2022-10-23T16:38:03;9.45;;;3.80;;
59302;SDS011;45074;52.764;6.896;2022-10-23T16:40:30;8.88;;;4.20;;
59302;SDS011;45074;52.764;6.896;2022-10-23T16:42:56;7.70;;;3.88;;
59302;SDS011;45074;52.764;6.896;2022-10-23T16:45:22;8.43;;;3.92;;
59302;SDS011;45074;52.764;6.896;2022-10-23T16:47:48;9.05;;;3.90;;
59302;SDS011;45074;52.764;6.896;2022-10-23T16:50:14;8.23;;;3.72;;